Omaha, NE (68101)

7:45 AM CST on February 13, 2016 (GMT -0600)
Midtown Crossing area | | Change Station
CLOSE
Current Station
Personal Weather Station
Location: Omaha, NE
Elevation: 1161 ft
Nearby Weather Stations

Elev 1161 ft 41.26 °N, 95.96 °W | Updated 12 seconds ago

Overcast
Overcast
9.7 °F
Feels Like 10 °F
N
2.0
Wind Variable Wind from SE
Gusts 2.5 mph

Today
High -- | Low -- °F
--% Chance of Precip.
Yesterday
High -- | Low -- °F
Precip. -- in
Pressure 30.69 in
Visibility 10.0 miles
Clouds Overcast 8500 ft
Windchill 10 °F
Dew Point -21 °F
Humidity 23%
Rainfall 0.00 in
Snow Depth Not available.
7:21 AM 5:54 PM
Waxing Crescent, 31% visible
METAR KOMA 131252Z 08007KT 10SM OVC085 M12/M18 A3062 RMK AO2 SLP390 T11221178
Pressure 30.69 in
Visibility 10.0 miles
Clouds Overcast 8500 ft
Windchill 10 °F
Dew Point -21 °F
Humidity 23%
Rainfall 0.00 in
Snow Depth Not available.
7:21 AM 5:54 PM
Waxing Crescent, 31% visible
METAR KOMA 131252Z 08007KT 10SM OVC085 M12/M18 A3062 RMK AO2 SLP390 T11221178

10-Day Weather Forecast

Almanac

Astronomy

Feb. 13, 2016 Rise Set
Actual Time
Civil Twilight
Nautical Twilight
Astronomical Twilight
Moon
Length of Visible Light
Length of Day
Tomorrow will be .
, % of the Moon is Illuminated

Today's Extremes

State Highs State Lows

Community

WunderPhotos

Upload Photos

1,892,547 photos uploaded!

WunderBlog® & News

Nearby

Air Quality

  Air Quality AQ Index Pollutant
Not available.

Snow Depth

Station Depth Elevation

Earthquake Activity

City Distance Mag. Time & Date
Minimum magnitude displayed is 2.5.

Coastal Water Temperatures

Place Temperature

Stations

Nearby Weather Stations

Station Location Temp. Windchill Dew Point Humidity Wind Precip. Elev Updated Type
                   

Watches & Warnings

There are currently no watches in effect.